Terminal Aerodrome Forecast
Issued by NWS Austin/San Antonio, TX

Home | Current Version | Previous Version | Text Only | Print | Product List | Glossary On
Versions: 1 2 3 4 5 6 7 8 9 10 11 12 13 14 15
000
FTUS44 KEWX 251700
TAFSAT
TAF
KSAT 251728Z 2518/2624 15007KT P6SM FEW060
     FM260800 18005KT P6SM BKN012
     FM261500 18010KT P6SM SCT030=

USA.gov is the U.S. government's official web portal to all federal, state and local government web resources and services.